Airfield :
LOGIN :

Register | Disclaimer

   EN    FR    IT 

 










Legend :    VFR   Marginal VFR   IFR   Intensive IFR   Very Intensive IFR
Visi :
Ceiling :
>= 8 km
>= 3000ft
5 to 8 km
1000 to 3000 ft
1500m to 5 km
500 to 1000 ft
800 to 1500m
200 to 500 ft
< 800m
< 200 ft
Symbols :   Thunderstorms  Fog  Heavy snow  Heavy precipitations  Wind > 20 kt
SIGMETs :     Misc.  Thunderstorms  Icing  Turbulence  Mountain Waves  Volcanic Ashes







- Airport Elevation : 247 ft
- IATA code : BLL


EKBI - Billund

CURRENT METAR :
  • 261520Z AUTO 27010KT 8000 OVC008/// 13/12 Q1010

EXPIRED METARs :
  • 261450Z AUTO 29006KT 250V310 9999 SCT009/// OVC050/// 14/12 Q1009
  • 261420Z AUTO 34006KT 310V010 9000 FEW007/// BKN062/// 13/12 Q1009
  • 261350Z AUTO 32007KT 7000 SCT007/// BKN066/// 13/12 Q1009
  • 261320Z AUTO 31006KT 8000 SCT005/// BKN073/// 14/12 Q1010
  • 261250Z 29004KT 260V320 5000 -RA FEW022 BKN076 13/12 Q1010

TAF TAF EKBI
Valid from the 26 at 12:00 until the 27 at 12:00 UTC


261106Z 2612/2712 11008KT CAVOK
TEMPO 2612/2617 4000 SHRA BKN008 SCT030CB
PROB40 2612/2614 TSRA
BECMG 2612/2614 28010KT
TEMPO 2617/2623 4000 BR BKN008
BECMG 2623/2701 VRB02KT 0250 FG VV001
TEMPO 2701/2706 0800 VV002
BECMG 2706/2708 9999 NSW FEW012
TEMPO 2708/2710 BKN012
No reported NOTAMs for that airfield.
1 SIGMET reported for the Kobenhavn FIR (EKDK) :
 
Embedded thunderstorms
EKDK SIGMET 4 VALID 261405/261605 EKMI
EKDK KOBENHAVN FIR EMBD TS FCST AT 1405Z WI N5550 E01011 - N5555 E01044 - N5457 E01112 - N5550 E01011 FL350 WKN FCST AT 1605Z WI N5525 E01052 - N5622 E01024 - N5617 E00950 - N5525 E01052=



MET'MAP, your aeronautical weather chart ! - Copyright ORBIFLY December 2007 - Disclaimer

ORBIFLY MET'MAP TEAM :

Programming & Development : Alexandra Zaïnal
Concept & Development : Baudouin d'Aumeries
Co-Development & Prog : Marc-Olivier Méhu
Technical & hardware support : Manuel Goepfert

Contact : metmap@orbifly.com




SOURCES & CREDITS :

   NOAA